createdAt,value
2019-03-30T00:01:36.897Z,15.10
2019-03-30T00:04:08.841Z,15.23
2019-03-30T00:06:41.853Z,15.43
2019-03-30T00:09:14.815Z,15.03
2019-03-30T00:11:47.720Z,14.80
2019-03-30T00:14:20.407Z,15.10
2019-03-30T00:16:53.795Z,15.53
2019-03-30T00:19:34.920Z,15.20
2019-03-30T00:21:57.956Z,17.90
2019-03-30T00:24:29.857Z,17.77
2019-03-30T00:27:01.881Z,18.27
2019-03-30T00:29:32.916Z,17.33
2019-03-30T00:32:04.926Z,17.30
2019-03-30T00:34:35.939Z,17.37
2019-03-30T00:37:08.862Z,17.20
2019-03-30T00:39:42.019Z,18.27
2019-03-30T00:42:13.813Z,17.90
2019-03-30T00:44:45.981Z,17.83
2019-03-30T00:47:19.002Z,17.17
2019-03-30T00:49:51.995Z,20.13
2019-03-30T00:52:24.984Z,17.67
2019-03-30T00:54:57.003Z,18.47
2019-03-30T00:57:29.923Z,19.77
2019-03-30T01:00:03.022Z,20.50
2019-03-30T01:02:36.040Z,18.50
2019-03-30T01:05:09.063Z,18.80
2019-03-30T01:07:42.063Z,18.90
2019-03-30T01:10:15.076Z,18.60
2019-03-30T01:12:47.929Z,18.60
2019-03-30T01:15:21.121Z,18.57
2019-03-30T01:17:54.022Z,18.53
2019-03-30T01:20:26.283Z,18.13
2019-03-30T01:22:57.201Z,18.53
2019-03-30T01:25:29.983Z,17.43
2019-03-30T01:28:03.264Z,18.23
2019-03-30T01:30:36.068Z,18.63
2019-03-30T01:33:09.190Z,18.47
2019-03-30T01:35:42.111Z,18.20
2019-03-30T01:38:15.182Z,16.87
2019-03-30T01:40:48.129Z,18.83
2019-03-30T01:43:20.178Z,18.73
2019-03-30T01:45:51.178Z,19.37
2019-03-30T01:48:24.159Z,18.47
2019-03-30T01:50:55.280Z,18.67
2019-03-30T01:53:26.498Z,19.10
2019-03-30T01:55:57.425Z,19.13
2019-03-30T01:58:29.268Z,19.57
2019-03-30T02:01:00.186Z,17.77
2019-03-30T02:03:33.253Z,18.80
2019-03-30T02:06:06.428Z,17.97
2019-03-30T02:08:39.345Z,18.10
2019-03-30T02:11:12.310Z,19.67
2019-03-30T02:13:45.321Z,18.63
2019-03-30T02:16:17.358Z,18.27
2019-03-30T02:18:48.327Z,19.27
2019-03-30T02:21:21.901Z,18.90
2019-03-30T02:23:54.290Z,19.67
2019-03-30T02:26:26.255Z,19.60
2019-03-30T02:28:57.309Z,18.67
2019-03-30T02:31:29.432Z,19.47
2019-03-30T02:34:02.442Z,19.13
2019-03-30T02:36:35.326Z,18.43
2019-03-30T02:39:08.488Z,20.20
2019-03-30T02:41:41.456Z,18.10
2019-03-30T02:44:13.511Z,18.97
2019-03-30T02:46:44.490Z,21.57
2019-03-30T02:49:17.513Z,20.87
2019-03-30T02:51:50.399Z,19.90
2019-03-30T02:54:21.548Z,20.70
2019-03-30T02:56:53.477Z,20.13
2019-03-30T02:59:26.400Z,18.07
2019-03-30T03:01:59.507Z,19.33
2019-03-30T03:04:32.486Z,22.00
2019-03-30T03:07:05.520Z,20.80
2019-03-30T03:09:38.546Z,21.17
2019-03-30T03:12:11.511Z,19.90
2019-03-30T03:14:44.634Z,20.10
2019-03-30T03:17:17.571Z,20.53
2019-03-30T03:19:50.600Z,21.10
2019-03-30T03:22:23.649Z,20.60
2019-03-30T03:24:56.589Z,19.60
2019-03-30T03:27:29.667Z,17.53
2019-03-30T03:30:02.632Z,21.17
2019-03-30T03:32:35.720Z,21.70
2019-03-30T03:35:09.031Z,21.20
2019-03-30T03:37:45.258Z,21.20
2019-03-30T03:40:14.688Z,20.83
2019-03-30T03:42:47.640Z,20.47
2019-03-30T03:45:18.801Z,20.97
2019-03-30T03:47:51.670Z,20.13
2019-03-30T03:50:45.403Z,19.80
2019-03-30T03:53:18.155Z,21.20
2019-03-30T03:55:50.724Z,20.43
2019-03-30T03:58:26.302Z,19.70
2019-03-30T04:01:02.044Z,20.03
2019-03-30T04:03:36.012Z,21.37
2019-03-30T04:06:08.842Z,20.50
2019-03-30T04:08:43.214Z,21.40
2019-03-30T04:11:15.966Z,21.57
2019-03-30T04:13:48.565Z,22.37
2019-03-30T04:16:20.889Z,23.50
2019-03-30T04:18:53.770Z,23.47
2019-03-30T04:21:42.896Z,22.03
2019-03-30T04:23:59.899Z,23.17
2019-03-30T04:26:33.107Z,22.40
2019-03-30T04:29:05.878Z,21.60
2019-03-30T04:31:37.980Z,21.90
2019-03-30T04:34:08.905Z,23.60
2019-03-30T04:36:41.837Z,21.13
2019-03-30T04:39:12.968Z,21.27
2019-03-30T04:41:47.899Z,21.40
2019-03-30T04:44:20.954Z,21.73
2019-03-30T04:46:53.911Z,21.27
2019-03-30T04:49:26.021Z,20.07
2019-03-30T04:51:58.255Z,21.43
2019-03-30T04:54:30.059Z,19.93
2019-03-30T04:57:03.897Z,19.50
2019-03-30T04:59:36.001Z,19.73
2019-03-30T05:02:08.953Z,20.47
2019-03-30T05:04:42.080Z,20.07
2019-03-30T05:07:15.030Z,20.60
2019-03-30T05:09:47.998Z,22.40
2019-03-30T05:12:21.506Z,20.20
2019-03-30T05:14:54.044Z,19.67
2019-03-30T05:17:24.994Z,19.70
2019-03-30T05:19:57.168Z,19.07
2019-03-30T05:22:30.417Z,19.30
2019-03-30T05:25:02.129Z,18.47
2019-03-30T05:27:33.240Z,19.40
2019-03-30T05:30:06.190Z,20.83
2019-03-30T05:32:41.709Z,20.67
2019-03-30T05:35:12.240Z,21.10
2019-03-30T05:37:45.243Z,21.97
2019-03-30T05:40:18.342Z,21.73
2019-03-30T05:42:49.282Z,23.10
2019-03-30T05:45:21.219Z,23.83
2019-03-30T05:47:54.228Z,24.90
2019-03-30T05:50:26.713Z,21.03
2019-03-30T05:53:00.296Z,23.13
2019-03-30T05:55:33.180Z,21.77
2019-03-30T05:58:05.261Z,21.33
2019-03-30T06:00:36.695Z,19.90
2019-03-30T06:03:09.263Z,19.87
2019-03-30T06:05:42.263Z,20.63
2019-03-30T06:08:15.429Z,19.67
2019-03-30T06:10:48.448Z,20.50
2019-03-30T06:13:20.404Z,21.73
2019-03-30T06:15:52.869Z,21.03
2019-03-30T06:18:24.342Z,21.17
2019-03-30T06:20:57.370Z,20.80
2019-03-30T06:23:30.307Z,21.60
2019-03-30T06:26:03.388Z,20.70
2019-03-30T06:28:36.410Z,21.97
2019-03-30T06:31:08.483Z,21.33
2019-03-30T06:33:39.403Z,21.77
2019-03-30T06:36:12.505Z,21.93
2019-03-30T06:38:45.362Z,21.30
2019-03-30T06:41:18.565Z,22.23
2019-03-30T06:43:51.647Z,21.40
2019-03-30T06:46:24.501Z,23.33
2019-03-30T06:48:57.523Z,21.80
2019-03-30T06:51:30.484Z,21.00
2019-03-30T06:54:03.509Z,23.13
2019-03-30T06:56:36.457Z,22.50
2019-03-30T06:59:09.632Z,22.07
2019-03-30T07:01:42.858Z,21.53
2019-03-30T07:04:16.056Z,20.93
2019-03-30T07:06:48.553Z,20.03
2019-03-30T07:09:23.033Z,21.30
2019-03-30T07:11:56.184Z,20.33
2019-03-30T07:14:28.692Z,21.30
2019-03-30T07:17:01.768Z,21.73
2019-03-30T07:19:33.707Z,23.23
2019-03-30T07:22:05.737Z,21.90
2019-03-30T07:24:44.230Z,22.47
2019-03-30T07:27:15.715Z,22.20
2019-03-30T07:29:46.681Z,22.20
2019-03-30T07:32:18.623Z,22.90
2019-03-30T07:34:51.672Z,21.70
2019-03-30T07:37:22.705Z,22.17
2019-03-30T07:39:54.817Z,20.60
2019-03-30T07:42:29.226Z,23.17
2019-03-30T07:45:00.647Z,24.67
2019-03-30T07:47:32.736Z,25.00
2019-03-30T07:50:03.799Z,24.57
2019-03-30T07:52:37.047Z,24.70
2019-03-30T07:55:08.773Z,24.47
2019-03-30T07:57:39.975Z,23.90
2019-03-30T08:00:13.067Z,23.47
2019-03-30T08:02:44.008Z,25.60
2019-03-30T08:05:26.394Z,24.33
2019-03-30T08:08:01.161Z,24.53
2019-03-30T08:10:33.950Z,24.60
2019-03-30T08:13:05.815Z,26.37
2019-03-30T08:15:40.387Z,25.70
2019-03-30T08:18:13.919Z,27.37
2019-03-30T08:20:46.017Z,25.50
2019-03-30T08:23:17.966Z,28.53
2019-03-30T08:25:50.977Z,26.07
2019-03-30T08:28:23.994Z,28.07
2019-03-30T08:30:56.933Z,27.20
2019-03-30T08:33:29.378Z,28.40
2019-03-30T08:36:00.883Z,28.00
2019-03-30T08:38:32.888Z,28.30
2019-03-30T08:41:04.028Z,26.30
2019-03-30T08:43:35.995Z,26.30
2019-03-30T08:46:07.135Z,27.50
2019-03-30T08:48:39.003Z,28.60
2019-03-30T08:51:12.036Z,27.83
2019-03-30T08:53:53.994Z,27.00
2019-03-30T08:56:17.974Z,29.97
2019-03-30T08:58:49.004Z,28.27
2019-03-30T09:01:38.285Z,27.93
2019-03-30T09:04:12.035Z,28.30
2019-03-30T09:06:45.204Z,28.63
2019-03-30T09:09:18.185Z,27.37
2019-03-30T09:11:50.147Z,29.40
2019-03-30T09:14:21.116Z,28.93
2019-03-30T09:16:54.176Z,30.47
2019-03-30T09:19:27.013Z,30.40
2019-03-30T09:22:00.168Z,28.53
2019-03-30T09:24:33.167Z,28.70
2019-03-30T09:27:06.246Z,28.93
2019-03-30T09:29:37.219Z,28.57
2019-03-30T09:32:14.699Z,28.10
2019-03-30T09:34:42.219Z,29.93
2019-03-30T09:37:15.208Z,28.90
2019-03-30T09:39:48.256Z,34.23
2019-03-30T09:42:21.475Z,30.73
2019-03-30T09:44:54.637Z,28.87
2019-03-30T09:47:27.182Z,27.87
2019-03-30T09:50:02.562Z,30.50
2019-03-30T09:52:33.258Z,30.60
2019-03-30T09:55:06.108Z,28.80
2019-03-30T09:57:39.400Z,28.57
2019-03-30T10:00:12.524Z,29.77
2019-03-30T10:02:45.421Z,29.90
2019-03-30T10:05:18.328Z,29.33
2019-03-30T10:07:51.453Z,30.37
2019-03-30T10:10:25.331Z,29.13
2019-03-30T10:12:58.492Z,29.60
2019-03-30T10:15:30.442Z,30.80
2019-03-30T10:18:01.382Z,30.33
2019-03-30T10:20:33.327Z,30.20
2019-03-30T10:23:04.360Z,30.97
2019-03-30T10:25:36.487Z,30.80
2019-03-30T10:28:09.560Z,31.40
2019-03-30T10:30:41.421Z,31.63
2019-03-30T10:33:12.574Z,29.27
2019-03-30T10:35:45.448Z,31.70
2019-03-30T10:38:17.499Z,30.43
2019-03-30T10:40:49.442Z,31.47
2019-03-30T10:43:22.455Z,29.03
2019-03-30T10:45:54.501Z,31.47
2019-03-30T10:48:25.660Z,29.53
2019-03-30T10:50:57.506Z,28.87
2019-03-30T10:53:30.502Z,29.70
2019-03-30T10:56:01.577Z,28.40
2019-03-30T10:58:36.247Z,28.00
2019-03-30T11:01:07.499Z,27.60
2019-03-30T11:03:40.608Z,25.20
2019-03-30T11:06:11.788Z,27.30
2019-03-30T11:08:42.739Z,25.50
2019-03-30T11:11:15.655Z,26.53
2019-03-30T11:13:48.561Z,26.07
2019-03-30T11:16:23.884Z,25.80
2019-03-30T11:18:57.766Z,26.30
2019-03-30T11:21:30.569Z,26.97
2019-03-30T11:24:01.669Z,24.57
2019-03-30T11:26:33.674Z,22.90
2019-03-30T11:29:06.804Z,24.20
2019-03-30T11:31:39.692Z,28.00
2019-03-30T11:34:10.865Z,28.20
2019-03-30T11:36:42.771Z,27.30
2019-03-30T11:39:15.778Z,25.90
2019-03-30T11:41:50.516Z,23.80
2019-03-30T11:44:21.895Z,23.93
2019-03-30T11:46:54.819Z,24.50
2019-03-30T11:49:28.082Z,23.20
2019-03-30T11:52:01.262Z,22.87
2019-03-30T11:54:33.942Z,23.93
2019-03-30T11:57:08.268Z,25.43
2019-03-30T11:59:39.829Z,27.23
2019-03-30T12:02:12.620Z,25.93
2019-03-30T12:04:46.137Z,24.07
2019-03-30T12:07:18.854Z,28.17
2019-03-30T12:09:51.855Z,24.13
2019-03-30T12:12:24.998Z,25.30
2019-03-30T12:14:57.093Z,28.23
2019-03-30T12:17:28.036Z,25.30
2019-03-30T12:20:00.914Z,23.50
2019-03-30T12:22:33.903Z,23.80
2019-03-30T12:25:07.229Z,24.30
2019-03-30T12:27:41.642Z,23.20
2019-03-30T12:30:13.244Z,22.70
2019-03-30T12:32:45.953Z,23.43
2019-03-30T12:35:19.109Z,21.73
2019-03-30T12:37:52.114Z,23.00
2019-03-30T12:40:23.085Z,21.70
2019-03-30T12:42:56.218Z,19.70
2019-03-30T12:45:27.314Z,20.77
2019-03-30T12:48:00.990Z,19.57
2019-03-30T12:50:34.108Z,21.33
2019-03-30T12:53:05.136Z,21.80
2019-03-30T12:55:48.720Z,20.03
2019-03-30T12:58:10.181Z,20.47
2019-03-30T13:00:43.229Z,21.37
2019-03-30T13:03:16.169Z,20.33
2019-03-30T13:05:47.236Z,20.77
2019-03-30T13:08:19.268Z,21.83
2019-03-30T13:10:52.164Z,22.90
2019-03-30T13:13:25.238Z,21.77
2019-03-30T13:15:58.169Z,21.80
2019-03-30T13:18:31.220Z,20.00
2019-03-30T13:21:05.129Z,21.43
2019-03-30T13:23:37.297Z,21.37
2019-03-30T13:26:10.247Z,22.40
2019-03-30T13:28:43.162Z,22.50
2019-03-30T13:31:15.408Z,21.77
2019-03-30T13:33:46.344Z,21.93
2019-03-30T13:36:20.025Z,20.87
2019-03-30T13:38:51.365Z,19.70
2019-03-30T13:41:23.417Z,18.10
2019-03-30T13:43:54.805Z,20.53
2019-03-30T13:46:27.391Z,19.90
2019-03-30T13:48:59.344Z,18.83
2019-03-30T13:51:30.388Z,19.23
2019-03-30T13:54:03.504Z,19.90
2019-03-30T13:56:36.459Z,19.80
2019-03-30T13:59:08.419Z,19.03
2019-03-30T14:01:39.365Z,18.30
2019-03-30T14:04:12.328Z,18.90
2019-03-30T14:06:45.411Z,18.93
2019-03-30T14:09:16.511Z,19.53
2019-03-30T14:11:48.479Z,20.23
2019-03-30T14:14:20.459Z,18.47
2019-03-30T14:16:51.635Z,19.10
2019-03-30T14:19:24.419Z,19.50
2019-03-30T14:21:57.625Z,19.43
2019-03-30T14:24:30.488Z,19.40
2019-03-30T14:27:03.517Z,19.30
2019-03-30T14:29:35.499Z,20.67
2019-03-30T14:32:06.710Z,20.80
2019-03-30T14:34:39.553Z,19.47
2019-03-30T14:37:11.554Z,19.93
2019-03-30T14:39:42.663Z,18.83
2019-03-30T14:42:15.569Z,19.50
2019-03-30T14:44:46.606Z,20.80
2019-03-30T14:47:18.595Z,18.57
2019-03-30T14:49:51.743Z,18.73
2019-03-30T14:52:23.628Z,18.00
2019-03-30T14:54:54.591Z,18.90
2019-03-30T14:57:27.438Z,18.30
2019-03-30T15:00:00.629Z,18.40
2019-03-30T15:02:33.599Z,19.77
2019-03-30T15:05:07.823Z,19.50
2019-03-30T15:07:39.687Z,18.23
2019-03-30T15:10:11.010Z,17.63
2019-03-30T15:12:42.797Z,16.37
2019-03-30T15:15:16.888Z,15.47
2019-03-30T15:17:48.674Z,16.20
2019-03-30T15:20:19.835Z,15.23
2019-03-30T15:22:51.797Z,18.10
2019-03-30T15:25:23.870Z,16.10
2019-03-30T15:27:54.835Z,15.60
2019-03-30T15:30:25.783Z,14.70
2019-03-30T15:32:57.882Z,15.73
2019-03-30T15:35:30.888Z,16.20
2019-03-30T15:38:03.775Z,16.23
2019-03-30T15:40:36.777Z,14.37
2019-03-30T15:43:09.828Z,15.57
2019-03-30T15:45:42.838Z,14.73
2019-03-30T15:48:14.933Z,15.67
2019-03-30T15:50:45.999Z,15.40
2019-03-30T15:53:18.824Z,15.77
2019-03-30T15:55:51.830Z,14.23
2019-03-30T15:58:22.852Z,15.03
2019-03-30T16:00:55.055Z,15.40
2019-03-30T16:03:27.501Z,15.90
2019-03-30T16:06:00.918Z,13.90
2019-03-30T16:08:33.030Z,12.83
2019-03-30T16:11:03.962Z,13.57
2019-03-30T16:13:36.888Z,12.53
2019-03-30T16:16:09.993Z,13.70
2019-03-30T16:18:43.179Z,13.40
2019-03-30T16:21:17.189Z,12.70
2019-03-30T16:23:49.069Z,12.90
2019-03-30T16:26:22.130Z,13.93
2019-03-30T16:28:55.229Z,12.27
2019-03-30T16:31:27.600Z,12.20
2019-03-30T16:34:01.232Z,12.70
2019-03-30T16:36:34.109Z,11.90
2019-03-30T16:39:08.043Z,12.17
2019-03-30T16:41:41.333Z,11.37
2019-03-30T16:44:13.139Z,9.90
2019-03-30T16:46:44.695Z,10.33
2019-03-30T16:49:16.107Z,10.60
2019-03-30T16:51:49.215Z,10.10
2019-03-30T16:54:22.177Z,10.73
2019-03-30T16:56:55.278Z,10.50
2019-03-30T16:59:27.687Z,10.30
2019-03-30T17:02:01.169Z,10.13
2019-03-30T17:04:34.400Z,9.10
2019-03-30T17:07:06.315Z,9.47
2019-03-30T17:09:37.272Z,11.17
2019-03-30T17:12:10.302Z,9.80
2019-03-30T17:14:43.150Z,9.73
2019-03-30T17:17:17.180Z,9.20
2019-03-30T17:19:49.332Z,9.63
2019-03-30T17:22:22.269Z,10.60
2019-03-30T17:24:55.297Z,9.47
2019-03-30T17:27:27.693Z,9.90
2019-03-30T17:29:59.200Z,9.87
2019-03-30T17:32:31.318Z,10.20
2019-03-30T17:35:04.655Z,8.83
2019-03-30T17:37:37.360Z,9.00
2019-03-30T17:40:10.380Z,9.50
2019-03-30T17:42:43.464Z,9.03
2019-03-30T17:45:16.458Z,10.10
2019-03-30T17:47:49.340Z,9.80
2019-03-30T17:50:22.333Z,10.30
2019-03-30T17:52:55.503Z,11.23
2019-03-30T17:55:33.839Z,11.57
2019-03-30T17:58:12.334Z,10.47
2019-03-30T18:00:34.398Z,9.57
2019-03-30T18:03:05.505Z,9.33
2019-03-30T18:05:37.450Z,8.73
2019-03-30T18:08:10.518Z,9.07
2019-03-30T18:10:43.531Z,9.80
2019-03-30T18:13:16.572Z,10.33
2019-03-30T18:15:49.572Z,10.33
2019-03-30T18:18:20.500Z,11.00
2019-03-30T18:20:55.171Z,10.73
2019-03-30T18:23:25.646Z,9.80
2019-03-30T18:25:58.795Z,11.37
2019-03-30T18:28:31.418Z,11.13
2019-03-30T18:31:04.641Z,10.77
2019-03-30T18:33:37.838Z,10.93
2019-03-30T18:36:10.730Z,11.40
2019-03-30T18:38:43.952Z,11.80
2019-03-30T18:41:16.610Z,11.20
2019-03-30T18:43:49.884Z,11.10
2019-03-30T18:46:21.734Z,11.30
2019-03-30T18:48:54.571Z,11.23
2019-03-30T18:51:25.898Z,10.90
2019-03-30T18:53:58.795Z,10.00
2019-03-30T18:56:31.651Z,10.00
2019-03-30T18:59:02.682Z,11.03
2019-03-30T19:01:34.861Z,10.43
2019-03-30T19:04:07.751Z,10.90
2019-03-30T19:06:40.818Z,11.07
2019-03-30T19:09:12.657Z,9.83
2019-03-30T19:11:45.893Z,10.30
2019-03-30T19:14:18.844Z,10.80
2019-03-30T19:16:50.834Z,9.93
2019-03-30T19:19:23.763Z,10.10
2019-03-30T19:21:54.772Z,11.23
2019-03-30T19:24:26.870Z,10.63
2019-03-30T19:26:59.920Z,11.00
2019-03-30T19:29:30.856Z,9.67
2019-03-30T19:32:01.810Z,11.30
2019-03-30T19:34:33.875Z,11.10
2019-03-30T19:37:07.167Z,10.63
2019-03-30T19:39:40.923Z,11.63
2019-03-30T19:42:15.484Z,12.37
2019-03-30T19:44:46.070Z,13.10
2019-03-30T19:47:18.990Z,14.87
2019-03-30T19:49:50.948Z,14.13
2019-03-30T19:52:22.004Z,15.53
2019-03-30T19:54:54.876Z,15.03
2019-03-30T19:57:27.981Z,14.13
2019-03-30T20:00:00.952Z,13.30
2019-03-30T20:02:34.070Z,13.30
2019-03-30T20:05:06.615Z,13.90
2019-03-30T20:07:40.059Z,13.67
2019-03-30T20:10:12.216Z,13.10
2019-03-30T20:12:45.127Z,14.30
2019-03-30T20:15:17.070Z,14.77
2019-03-30T20:17:49.118Z,14.50
2019-03-30T20:20:20.149Z,15.83
2019-03-30T20:22:51.188Z,14.50
2019-03-30T20:25:26.014Z,15.60
2019-03-30T20:27:57.079Z,15.13
2019-03-30T20:30:28.208Z,14.30
2019-03-30T20:32:59.158Z,14.87
2019-03-30T20:35:31.233Z,15.80
2019-03-30T20:38:02.560Z,14.87
2019-03-30T20:40:34.192Z,14.00
2019-03-30T20:43:07.297Z,14.70
2019-03-30T20:45:40.177Z,15.53
2019-03-30T20:48:13.507Z,15.47
2019-03-30T20:50:46.500Z,15.50
2019-03-30T20:53:18.206Z,15.40
2019-03-30T20:55:49.351Z,14.20
2019-03-30T20:58:21.333Z,16.53
2019-03-30T21:00:53.325Z,14.23
2019-03-30T21:03:24.563Z,14.53
2019-03-30T21:05:58.327Z,16.20
2019-03-30T21:08:31.325Z,16.03
2019-03-30T21:11:04.307Z,15.20
2019-03-30T21:13:37.196Z,16.20
2019-03-30T21:16:08.956Z,14.37
2019-03-30T21:18:40.358Z,16.00
2019-03-30T21:21:13.337Z,16.50
2019-03-30T21:23:46.427Z,16.27
2019-03-30T21:26:19.394Z,17.53
2019-03-30T21:28:52.365Z,16.70
2019-03-30T21:31:23.607Z,15.47
2019-03-30T21:33:55.569Z,16.63
2019-03-30T21:36:28.165Z,15.73
2019-03-30T21:38:59.503Z,16.30
2019-03-30T21:41:31.371Z,16.70
2019-03-30T21:44:04.554Z,15.57
2019-03-30T21:46:37.563Z,17.13
2019-03-30T21:49:10.572Z,17.30
2019-03-30T21:51:43.415Z,15.30
2019-03-30T21:54:14.560Z,17.10
2019-03-30T21:56:46.505Z,15.83
2019-03-30T21:59:19.372Z,17.77
2019-03-30T22:01:50.475Z,17.27
2019-03-30T22:04:22.775Z,15.80
2019-03-30T22:06:56.706Z,17.17
2019-03-30T22:09:28.164Z,19.30
2019-03-30T22:12:01.595Z,17.80
2019-03-30T22:14:34.594Z,16.60
2019-03-30T22:17:05.542Z,17.50
2019-03-30T22:19:36.731Z,17.23
2019-03-30T22:22:10.871Z,17.50
2019-03-30T22:24:43.660Z,18.23
2019-03-30T22:27:15.673Z,18.03
2019-03-30T22:29:48.587Z,16.47
2019-03-30T22:32:20.688Z,16.93
2019-03-30T22:34:55.269Z,19.03
2019-03-30T22:37:27.689Z,18.80
2019-03-30T22:39:58.677Z,19.57
2019-03-30T22:42:34.421Z,18.10
2019-03-30T22:45:06.768Z,19.93
2019-03-30T22:47:37.973Z,19.70
2019-03-30T22:50:09.223Z,20.80
2019-03-30T22:52:42.304Z,19.40
2019-03-30T22:55:13.631Z,20.27
2019-03-30T22:57:46.792Z,19.70
2019-03-30T23:00:39.429Z,20.53
2019-03-30T23:03:11.722Z,18.70
2019-03-30T23:05:44.005Z,19.67
2019-03-30T23:08:16.827Z,19.77
2019-03-30T23:10:49.935Z,20.60
2019-03-30T23:13:22.800Z,21.40
2019-03-30T23:15:55.860Z,21.37
2019-03-30T23:18:28.180Z,20.50
2019-03-30T23:21:00.811Z,19.33
2019-03-30T23:23:34.449Z,21.60
2019-03-30T23:26:07.932Z,19.10
2019-03-30T23:28:40.841Z,19.40
2019-03-30T23:31:13.986Z,20.30
2019-03-30T23:33:46.016Z,18.80
2019-03-30T23:36:17.827Z,21.00
2019-03-30T23:38:48.996Z,21.27
2019-03-30T23:41:19.932Z,20.63
2019-03-30T23:43:52.976Z,21.17
2019-03-30T23:46:27.592Z,21.03
2019-03-30T23:48:58.903Z,19.87
2019-03-30T23:51:31.975Z,18.53
2019-03-30T23:54:04.032Z,21.40
2019-03-30T23:56:36.958Z,19.30
2019-03-30T23:59:09.000Z,19.90
